Time;durP1;ratioP1;P1;durP2;ratioP2;P2;SDS_P1;SDS_P2;PMS_P1;PMS_P2;Temp;Humidity;BMP_temperature;BMP_pressure;BME280_temperature;BME280_humidity;BME280_pressure;Samples;Min_cycle;Max_cycle;Signal;HPM_P1;HPM_P2
2022/10/16 00:02:16;;;;;;;5.82;3.38;;;;;;;22.57;55.55;100776.25;20646143;28;20177;-72
2022/10/16 00:12:16;;;;;;;5.28;3.10;;;;;;;22.55;55.65;100769.28;20662154;28;20049;-72
2022/10/16 00:22:16;;;;;;;5.97;3.47;;;;;;;22.57;56.18;100771.81;20649393;28;20058;-71
2022/10/16 00:32:19;;;;;;;8.23;3.42;;;;;;;22.58;55.93;100786.66;20650796;28;20464;-71
2022/10/16 00:42:19;;;;;;;8.77;3.25;;;;;;;22.59;55.96;100798.91;20658963;28;21388;-71
2022/10/16 00:52:20;;;;;;;4.00;3.28;;;;;;;22.58;55.70;100791.94;20652035;28;20046;-72
2022/10/16 01:02:20;;;;;;;5.53;3.33;;;;;;;22.57;55.58;100800.00;20645414;28;20103;-71
2022/10/16 01:12:20;;;;;;;3.92;2.90;;;;;;;22.57;55.70;100807.91;20652696;28;20061;-71
2022/10/16 01:22:25;;;;;;;3.13;2.78;;;;;;;22.55;55.93;100808.03;20658506;28;20081;-71
2022/10/16 01:32:52;;;;;;;3.63;2.80;;;;;;;22.53;55.75;100816.06;20654826;28;20030;-72
2022/10/16 01:42:58;;;;;;;4.78;2.80;;;;;;;22.51;55.46;100812.72;20639101;28;20054;-74
2022/10/16 01:53:03;;;;;;;4.28;3.17;;;;;;;22.53;55.79;100831.91;20644732;28;20408;-74
2022/10/16 02:03:05;;;;;;;3.70;2.90;;;;;;;22.54;56.16;100844.16;20642432;28;20042;-74
2022/10/16 02:13:16;;;;;;;3.45;2.88;;;;;;;22.54;55.88;100851.22;20652500;28;20042;-74
2022/10/16 02:23:24;;;;;;;3.65;2.65;;;;;;;22.51;55.96;100856.75;20637652;28;20089;-73
2022/10/16 02:33:27;;;;;;;4.20;2.90;;;;;;;22.50;55.75;100850.59;20650537;28;20444;-75
2022/10/16 02:43:27;;;;;;;2.90;2.67;;;;;;;22.51;55.88;100862.03;20649347;28;20050;-74
2022/10/16 02:53:30;;;;;;;3.17;2.80;;;;;;;22.49;55.84;100854.19;20656932;28;20042;-72
2022/10/16 03:03:30;;;;;;;3.28;2.90;;;;;;;22.46;55.92;100853.59;20647512;28;20141;-72
2022/10/16 03:13:31;;;;;;;2.95;2.60;;;;;;;22.46;55.76;100875.56;20646481;28;20065;-74
2022/10/16 03:23:32;;;;;;;3.22;2.55;;;;;;;22.44;55.82;100884.53;20656842;28;20062;-74
2022/10/16 03:33:32;;;;;;;3.78;2.97;;;;;;;22.42;55.73;100889.91;20660603;28;20097;-74
2022/10/16 03:43:33;;;;;;;4.03;3.10;;;;;;;22.44;55.73;100905.66;20656589;28;20054;-73
2022/10/16 03:53:33;;;;;;;4.60;2.60;;;;;;;22.41;55.64;100900.59;20648491;28;20053;-73
2022/10/16 04:03:34;;;;;;;3.33;3.00;;;;;;;22.44;56.01;100905.66;20656287;28;20292;-74
2022/10/16 04:13:34;;;;;;;3.20;2.88;;;;;;;22.41;55.95;100912.00;20662142;28;20728;-73
2022/10/16 04:23:34;;;;;;;4.40;2.47;;;;;;;22.43;55.89;100912.72;20666015;28;20133;-73
2022/10/16 04:33:35;;;;;;;2.83;2.50;;;;;;;22.44;56.04;100905.66;20670538;28;20053;-74
2022/10/16 04:43:35;;;;;;;7.25;2.92;;;;;;;22.42;55.83;100929.50;20662763;28;20046;-73
2022/10/16 04:53:36;;;;;;;5.53;2.55;;;;;;;22.42;55.95;100933.94;20661152;28;20045;-74
2022/10/16 05:03:36;;;;;;;10.07;2.60;;;;;;;22.38;55.80;100951.81;20674117;28;20057;-73
2022/10/16 05:13:38;;;;;;;5.97;2.75;;;;;;;22.36;55.96;100946.63;20672683;28;20100;-74
2022/10/16 05:23:38;;;;;;;2.60;2.40;;;;;;;22.36;55.75;100949.25;20628974;28;20046;-71
2022/10/16 05:33:38;;;;;;;7.07;3.13;;;;;;;22.47;56.83;100966.09;20658077;28;20104;-71
2022/10/16 05:43:39;;;;;;;5.25;2.90;;;;;;;22.47;56.83;100974.88;20652201;28;20042;-71
2022/10/16 05:53:40;;;;;;;7.63;3.30;;;;;;;22.46;56.93;100985.53;20661935;28;20471;-72
2022/10/16 06:03:41;;;;;;;4.75;2.83;;;;;;;22.48;56.51;100988.91;20666147;28;20085;-72
2022/10/16 06:13:42;;;;;;;3.85;2.90;;;;;;;22.46;56.73;101007.50;20665112;28;20137;-71
2022/10/16 06:23:42;;;;;;;3.60;2.90;;;;;;;22.46;56.30;101007.50;20654542;28;20057;-72
2022/10/16 06:33:45;;;;;;;4.45;2.65;;;;;;;22.47;56.36;101017.09;20667693;28;20068;-72
2022/10/16 06:43:46;;;;;;;3.92;2.50;;;;;;;22.47;56.21;101035.59;20659065;28;20452;-72
2022/10/16 06:53:49;;;;;;;7.53;4.38;;;;;;;22.15;46.71;101051.03;20655821;28;20068;-76
2022/10/16 07:03:50;;;;;;;6.85;4.55;;;;;;;22.20;50.09;101060.31;20657821;28;20060;-74
2022/10/16 07:13:51;;;;;;;6.87;4.97;;;;;;;22.31;52.91;101070.09;20674661;28;20046;-75
2022/10/16 07:23:52;;;;;;;16.33;5.30;;;;;;;22.36;53.35;101083.81;20658623;28;20322;-72
2022/10/16 07:33:53;;;;;;;20.80;6.95;;;;;;;22.28;51.52;101086.16;20635555;28;20160;-73
2022/10/16 07:43:54;;;;;;;20.95;5.88;;;;;;;22.39;52.92;101117.09;20644834;28;20054;-73
2022/10/16 07:53:55;;;;;;;22.75;5.82;;;;;;;22.44;52.92;101122.88;20638365;28;20035;-73
2022/10/16 08:03:55;;;;;;;16.60;5.35;;;;;;;22.42;53.47;101121.28;20665218;28;20061;-72
2022/10/16 08:13:55;;;;;;;17.52;5.10;;;;;;;22.39;53.44;101119.72;20669390;28;20101;-72
2022/10/16 08:23:56;;;;;;;10.13;4.82;;;;;;;22.40;52.88;101139.88;20668882;28;20053;-72
2022/10/16 08:33:56;;;;;;;11.32;4.38;;;;;;;22.43;53.21;101146.75;20673276;28;20046;-72
2022/10/16 08:44:30;;;;;;;9.65;4.50;;;;;;;22.43;53.34;101163.41;20669157;28;20069;-72
2022/10/16 08:54:42;;;;;;;11.90;4.50;;;;;;;22.47;53.46;101156.13;20668425;28;20072;-72
2022/10/16 09:04:51;;;;;;;9.05;4.65;;;;;;;22.49;53.69;101160.31;20672479;28;20060;-72
2022/10/16 09:15:15;;;;;;;8.18;4.85;;;;;;;22.54;53.52;101171.44;20656643;28;20049;-70
2022/10/16 09:25:19;;;;;;;10.70;4.20;;;;;;;22.58;53.71;101169.38;20657326;28;20048;-70
2022/10/16 09:35:35;;;;;;;5.35;3.83;;;;;;;22.64;53.67;101158.41;20654739;28;20053;-70
2022/10/16 09:45:35;;;;;;;6.95;4.07;;;;;;;22.68;53.60;101161.69;20668209;28;20471;-70
2022/10/16 09:55:35;;;;;;;7.18;3.90;;;;;;;22.73;53.75;101175.38;20660010;28;20039;-70
2022/10/16 10:05:39;;;;;;;5.90;3.60;;;;;;;22.79;53.50;101179.38;20652604;28;20133;-70
2022/10/16 10:15:41;;;;;;;5.88;3.80;;;;;;;22.85;53.43;101173.63;20658876;28;20070;-71
2022/10/16 10:25:57;;;;;;;4.75;3.78;;;;;;;22.91;53.36;101149.44;20664775;28;20046;-72
2022/10/16 10:36:09;;;;;;;5.63;3.70;;;;;;;23.00;53.15;101147.94;20651469;28;20136;-71
2022/10/16 10:46:17;;;;;;;5.38;3.35;;;;;;;23.07;52.89;101145.66;20659145;28;20045;-71
2022/10/16 10:56:23;;;;;;;4.68;3.25;;;;;;;23.14;52.94;101142.47;20659623;28;20578;-71
2022/10/16 11:06:28;;;;;;;4.68;3.15;;;;;;;23.21;52.71;101140.25;20603994;28;20089;-71
2022/10/16 11:16:40;;;;;;;3.90;3.10;;;;;;;23.28;52.64;101138.84;20654550;28;20058;-72
2022/10/16 11:26:43;;;;;;;3.28;2.85;;;;;;;23.37;52.47;101128.53;20651008;28;20034;-71
2022/10/16 11:37:02;;;;;;;4.85;2.95;;;;;;;23.46;52.61;101119.91;20658056;28;20034;-72
2022/10/16 11:47:35;;;;;;;4.28;3.03;;;;;;;23.55;52.26;101118.38;20666580;28;20536;-72
2022/10/16 11:57:45;;;;;;;4.22;2.63;;;;;;;23.63;52.03;101115.97;20659010;28;20452;-71
2022/10/16 12:08:07;;;;;;;4.22;2.72;;;;;;;23.72;51.97;101109.16;20664660;28;20042;-71
2022/10/16 12:18:21;;;;;;;3.35;2.65;;;;;;;23.73;51.97;101102.88;20653585;28;20144;-72
2022/10/16 12:28:27;;;;;;;3.15;2.38;;;;;;;23.79;51.67;101091.84;20656056;28;20030;-71
2022/10/16 12:38:35;;;;;;;3.75;2.78;;;;;;;23.87;51.54;101097.38;20675519;28;20053;-71
2022/10/16 12:48:38;;;;;;;3.80;2.70;;;;;;;23.94;51.54;101092.50;20672083;28;20504;-71
2022/10/16 12:58:53;;;;;;;15.80;3.53;;;;;;;24.04;51.16;101103.19;20661144;28;20101;-72
2022/10/16 13:09:06;;;;;;;7.82;3.22;;;;;;;24.08;47.93;101105.50;20642743;28;20065;-72
2022/10/16 13:19:36;;;;;;;15.15;3.45;;;;;;;24.13;46.61;101100.66;20665814;28;20073;-71
2022/10/16 13:29:41;;;;;;;4.80;3.00;;;;;;;24.18;44.25;101110.91;20639057;28;20790;-72
2022/10/16 13:39:41;;;;;;;4.00;3.35;;;;;;;24.21;44.71;101118.56;20666904;28;20112;-72
2022/10/16 13:49:41;;;;;;;4.97;3.00;;;;;;;24.22;43.19;101112.31;20660325;28;20041;-72
2022/10/16 13:59:42;;;;;;;3.22;2.50;;;;;;;24.24;43.14;101120.13;20660032;28;20042;-72
2022/10/16 14:09:49;;;;;;;4.97;2.70;;;;;;;24.25;43.10;101117.34;20657939;28;20072;-73
2022/10/16 14:19:52;;;;;;;3.75;2.80;;;;;;;24.26;42.93;101111.09;20657625;28;20501;-72
2022/10/16 14:30:11;;;;;;;5.20;3.15;;;;;;;24.26;43.09;101118.22;20647955;28;20053;-73
2022/10/16 14:40:15;;;;;;;3.80;2.97;;;;;;;24.21;40.94;101113.28;20653604;28;20416;-73
2022/10/16 14:50:15;;;;;;;3.35;2.75;;;;;;;24.08;39.59;101129.31;20650243;28;20042;-74
2022/10/16 15:00:22;;;;;;;3.90;2.80;;;;;;;23.94;37.62;101125.06;20656851;28;20053;-72
2022/10/16 15:10:25;;;;;;;5.35;3.10;;;;;;;23.83;37.34;101119.75;20751517;28;20046;-72
2022/10/16 15:20:34;;;;;;;5.22;3.40;;;;;;;23.74;39.98;101144.25;20768921;28;20051;-72
2022/10/16 15:30:36;;;;;;;5.90;3.40;;;;;;;23.73;42.51;101158.41;20764586;28;20053;-72
2022/10/16 15:40:42;;;;;;;10.17;3.23;;;;;;;23.72;44.00;101154.13;20755929;28;20077;-76
2022/10/16 15:50:42;;;;;;;10.15;3.17;;;;;;;23.66;44.82;101161.53;20774609;28;20141;-73
2022/10/16 16:00:43;;;;;;;7.75;3.45;;;;;;;23.64;45.87;101173.19;20682953;28;20145;-72
2022/10/16 16:10:43;;;;;;;4.45;2.95;;;;;;;23.60;46.34;101187.59;20666044;28;20058;-73
2022/10/16 16:20:44;;;;;;;10.48;3.10;;;;;;;23.59;47.15;101196.50;20671481;28;20053;-72
2022/10/16 16:30:44;;;;;;;6.82;3.33;;;;;;;23.61;47.70;101216.56;20672923;28;20048;-73
2022/10/16 16:40:44;;;;;;;18.95;3.40;;;;;;;23.60;48.75;101232.53;20666236;28;20049;-73
2022/10/16 16:50:45;;;;;;;8.57;2.97;;;;;;;23.60;48.50;101241.31;20666500;28;20037;-73
2022/10/16 17:00:46;;;;;;;5.90;2.80;;;;;;;23.59;48.76;101249.38;20667769;28;20112;-76
2022/10/16 17:10:51;;;;;;;6.00;3.03;;;;;;;23.57;49.20;101268.00;20649606;28;20058;-74
2022/10/16 17:20:52;;;;;;;9.27;3.30;;;;;;;23.56;49.65;101278.66;20646137;28;20378;-73
2022/10/16 17:30:52;;;;;;;8.60;3.38;;;;;;;23.54;49.85;101291.16;20642058;28;20614;-72
2022/10/16 17:40:53;;;;;;;8.10;3.60;;;;;;;23.49;50.64;101300.25;20655953;28;20042;-73
2022/10/16 17:50:53;;;;;;;12.15;4.00;;;;;;;23.48;51.04;101314.44;20656493;28;20064;-73
2022/10/16 18:00:54;;;;;;;18.20;3.78;;;;;;;23.45;51.63;101327.06;20648946;28;20042;-72
2022/10/16 18:10:54;;;;;;;14.63;4.97;;;;;;;23.49;52.63;101339.91;20665754;28;20147;-74
2022/10/16 18:20:59;;;;;;;14.77;7.13;;;;;;;23.53;54.41;101340.53;20678507;28;20512;-74
2022/10/16 18:31:07;;;;;;;12.70;6.80;;;;;;;23.55;55.88;101332.50;20656870;28;20347;-75
2022/10/16 18:41:07;;;;;;;10.82;5.78;;;;;;;23.56;55.61;101352.69;20667890;28;20136;-74
2022/10/16 18:51:19;;;;;;;8.45;4.80;;;;;;;23.53;55.08;101355.56;20678732;28;20049;-75
2022/10/16 19:01:23;;;;;;;14.07;5.15;;;;;;;23.49;55.32;101373.44;20679098;28;20049;-74
2022/10/16 19:11:24;;;;;;;10.20;4.85;;;;;;;23.50;55.03;101361.91;20670649;28;20042;-73
2022/10/16 19:21:27;;;;;;;13.63;4.73;;;;;;;23.45;55.27;101371.97;20634650;28;20123;-71
2022/10/16 19:31:28;;;;;;;;;;;;;;;23.40;54.94;101374.94;20643330;28;20042;-72
2022/10/16 19:41:29;;;;;;;9.18;5.10;;;;;;;23.37;54.62;101396.28;20636701;28;20067;-72
2022/10/16 19:51:30;;;;;;;9.63;4.60;;;;;;;23.32;54.33;101406.34;20651794;28;20042;-72
2022/10/16 20:01:31;;;;;;;9.10;4.72;;;;;;;23.30;54.19;101413.53;20640659;28;20077;-72
2022/10/16 20:11:33;;;;;;;6.65;4.30;;;;;;;23.30;54.17;101426.75;20646174;28;20469;-72
2022/10/16 20:21:34;;;;;;;7.90;4.68;;;;;;;23.27;54.17;101450.75;20649366;28;20121;-72
2022/10/16 20:31:35;;;;;;;8.40;4.68;;;;;;;23.24;54.09;101470.31;20655712;28;20401;-73
2022/10/16 20:41:36;;;;;;;11.17;5.17;;;;;;;23.22;54.14;101476.63;20658119;28;20069;-72
2022/10/16 20:51:37;;;;;;;6.60;4.38;;;;;;;23.20;54.03;101494.41;20656027;28;20392;-72
2022/10/16 21:01:38;;;;;;;7.85;4.70;;;;;;;23.18;53.76;101499.81;20656915;28;20069;-73
2022/10/16 21:11:38;;;;;;;7.68;4.82;;;;;;;23.16;53.88;101504.31;20648536;28;20130;-73
2022/10/16 21:21:38;;;;;;;7.30;4.93;;;;;;;23.15;53.83;101514.03;20661169;28;20065;-73
2022/10/16 21:31:40;;;;;;;7.53;5.05;;;;;;;23.13;53.74;101513.31;20649933;28;20042;-72
2022/10/16 21:41:44;;;;;;;6.78;4.85;;;;;;;23.12;53.88;101510.75;20637467;28;20519;-71
2022/10/16 21:51:47;;;;;;;7.25;4.72;;;;;;;23.12;53.89;101516.88;20645280;28;20105;-71
2022/10/16 22:01:51;;;;;;;6.70;4.60;;;;;;;23.12;54.10;101518.66;20640231;28;20130;-71
2022/10/16 22:11:52;;;;;;;8.13;4.93;;;;;;;23.10;54.18;101528.50;20634733;28;20047;-72
2022/10/16 22:21:56;;;;;;;8.00;4.60;;;;;;;23.08;53.90;101543.63;20647657;28;20074;-71
2022/10/16 22:31:56;;;;;;;7.22;4.75;;;;;;;23.07;54.13;101541.91;20643960;28;20069;-71
2022/10/16 22:41:56;;;;;;;8.57;4.75;;;;;;;23.05;54.30;101539.38;20637693;28;21630;-72
2022/10/16 22:51:57;;;;;;;6.20;4.50;;;;;;;23.05;54.20;101549.13;20650004;28;20050;-71
2022/10/16 23:01:57;;;;;;;9.90;4.97;;;;;;;23.02;54.22;101569.50;20634674;28;20119;-71
2022/10/16 23:11:57;;;;;;;6.57;4.28;;;;;;;23.03;54.30;101578.25;20645386;28;21239;-71
2022/10/16 23:21:58;;;;;;;7.32;4.32;;;;;;;23.00;54.18;101584.59;20638045;28;20180;-71
2022/10/16 23:31:59;;;;;;;5.95;4.13;;;;;;;22.99;54.10;101579.41;20643370;28;20045;-71
2022/10/16 23:41:59;;;;;;;7.05;4.20;;;;;;;22.97;54.09;101594.50;20638051;28;20046;-72
2022/10/16 23:52:01;;;;;;;5.47;4.60;;;;;;;22.94;53.95;101597.38;20642022;28;20116;-72
